createdAt,value
2018-04-07T00:02:31.948Z,3.80
2018-04-07T00:05:04.557Z,3.80
2018-04-07T00:07:37.147Z,3.80
2018-04-07T00:10:10.029Z,3.80
2018-04-07T00:12:42.629Z,3.70
2018-04-07T00:15:15.240Z,3.70
2018-04-07T00:17:47.828Z,3.60
2018-04-07T00:20:20.445Z,3.60
2018-04-07T00:22:53.992Z,3.50
2018-04-07T00:25:26.605Z,3.40
2018-04-07T00:27:59.192Z,3.40
2018-04-07T00:30:31.825Z,3.40
2018-04-07T00:33:04.409Z,3.40
2018-04-07T00:35:37.029Z,3.40
2018-04-07T00:38:10.385Z,3.40
2018-04-07T00:40:43.001Z,3.40
2018-04-07T00:43:15.589Z,3.40
2018-04-07T00:45:48.205Z,3.30
2018-04-07T00:48:20.802Z,3.30
2018-04-07T00:50:54.179Z,3.20
2018-04-07T00:53:26.804Z,3.20
2018-04-07T00:56:00.197Z,3.20
2018-04-07T00:58:32.793Z,3.20
2018-04-07T01:01:05.409Z,3.20
2018-04-07T01:03:38.752Z,3.30
2018-04-07T01:06:11.373Z,3.20
2018-04-07T01:08:43.960Z,3.30
2018-04-07T01:11:16.583Z,3.20
2018-04-07T01:13:49.937Z,3.10
2018-04-07T01:16:22.545Z,3.10
2018-04-07T01:18:55.133Z,3.10
2018-04-07T01:21:27.756Z,3.10
2018-04-07T01:24:00.341Z,3.00
2018-04-07T01:26:32.952Z,3.00
2018-04-07T01:29:06.308Z,3.00
2018-04-07T01:31:38.932Z,3.00
2018-04-07T01:34:11.512Z,3.00
2018-04-07T01:36:44.117Z,2.90
2018-04-07T01:39:16.706Z,3.00
2018-04-07T01:41:49.341Z,3.00
2018-04-07T01:44:21.929Z,2.90
2018-04-07T01:46:54.556Z,2.90
2018-04-07T01:49:27.156Z,2.90
2018-04-07T01:51:59.763Z,3.00
2018-04-07T01:54:32.348Z,3.10
2018-04-07T01:57:04.956Z,3.10
2018-04-07T01:59:38.304Z,3.50
2018-04-07T02:02:10.909Z,3.50
2018-04-07T02:04:43.488Z,3.20
2018-04-07T02:07:16.102Z,3.10
2018-04-07T02:09:48.687Z,3.10
2018-04-07T02:12:22.056Z,2.90
2018-04-07T02:14:54.645Z,2.90
2018-04-07T02:17:27.259Z,2.90
2018-04-07T02:19:59.840Z,2.90
2018-04-07T02:22:32.447Z,3.00
2018-04-07T02:25:05.032Z,3.30
2018-04-07T02:27:37.641Z,3.10
2018-04-07T02:30:10.258Z,2.90
2018-04-07T02:32:42.860Z,2.90
2018-04-07T02:35:15.453Z,3.30
2018-04-07T02:37:48.077Z,3.30
2018-04-07T02:40:20.701Z,3.20
2018-04-07T02:42:53.318Z,2.90
2018-04-07T02:45:25.905Z,2.80
2018-04-07T02:47:58.533Z,2.80
2018-04-07T02:50:31.111Z,2.80
2018-04-07T02:53:04.495Z,2.70
2018-04-07T02:55:37.077Z,2.70
2018-04-07T02:58:09.675Z,2.80
2018-04-07T03:00:42.259Z,2.80
2018-04-07T03:03:14.879Z,2.80
2018-04-07T03:05:48.228Z,2.70
2018-04-07T03:08:20.847Z,2.70
2018-04-07T03:10:53.435Z,2.70
2018-04-07T03:13:26.039Z,2.70
2018-04-07T03:15:58.627Z,2.70
2018-04-07T03:18:31.239Z,2.70
2018-04-07T03:21:03.824Z,2.80
2018-04-07T03:23:36.449Z,2.90
2018-04-07T03:26:09.041Z,2.90
2018-04-07T03:28:41.665Z,2.90
2018-04-07T03:31:15.241Z,2.90
2018-04-07T03:33:47.852Z,2.80
2018-04-07T03:36:20.428Z,2.90
2018-04-07T03:38:53.057Z,2.80
2018-04-07T03:41:25.643Z,2.80
2018-04-07T03:43:58.244Z,2.80
2018-04-07T03:46:31.069Z,2.80
2018-04-07T03:49:03.680Z,2.80
2018-04-07T03:51:37.036Z,2.90
2018-04-07T03:54:09.664Z,2.90
2018-04-07T03:56:42.245Z,2.90
2018-04-07T03:59:14.856Z,2.90
2018-04-07T04:01:48.208Z,2.80
2018-04-07T04:04:20.816Z,2.70
2018-04-07T04:06:53.408Z,2.70
2018-04-07T04:09:26.035Z,2.60
2018-04-07T04:11:59.383Z,2.60
2018-04-07T04:14:31.992Z,2.50
2018-04-07T04:17:04.571Z,2.50
2018-04-07T04:19:37.192Z,2.50
2018-04-07T04:22:09.780Z,2.50
2018-04-07T04:24:42.387Z,2.50
2018-04-07T04:27:14.981Z,2.50
2018-04-07T04:29:47.595Z,2.50
2018-04-07T04:32:20.935Z,2.60
2018-04-07T04:34:53.545Z,2.60
2018-04-07T04:37:26.136Z,2.60
2018-04-07T04:39:58.741Z,2.60
2018-04-07T04:42:31.319Z,2.60
2018-04-07T04:45:03.920Z,2.60
2018-04-07T04:47:36.499Z,2.60
2018-04-07T04:50:09.124Z,2.60
2018-04-07T04:52:42.472Z,2.70
2018-04-07T04:55:15.077Z,2.70
2018-04-07T04:57:47.664Z,2.80
2018-04-07T05:00:20.292Z,2.90
2018-04-07T05:02:52.872Z,3.10
2018-04-07T05:05:25.502Z,3.40
2018-04-07T05:07:58.854Z,4.20
2018-04-07T05:10:31.484Z,4.20
2018-04-07T05:13:04.836Z,4.50
2018-04-07T05:15:37.439Z,4.50
2018-04-07T05:18:10.019Z,4.70
2018-04-07T05:20:42.639Z,4.70
2018-04-07T05:23:16.057Z,4.60
2018-04-07T05:25:48.667Z,4.60
2018-04-07T05:28:21.252Z,4.60
2018-04-07T05:30:53.871Z,4.60
2018-04-07T05:33:27.220Z,4.80
2018-04-07T05:36:00.601Z,4.90
2018-04-07T05:38:33.207Z,4.90
2018-04-07T05:41:05.811Z,5.00
2018-04-07T05:43:38.606Z,5.20
2018-04-07T05:46:11.247Z,5.40
2018-04-07T05:48:44.586Z,5.20
2018-04-07T05:51:17.201Z,5.20
2018-04-07T05:53:49.797Z,5.10
2018-04-07T05:56:23.192Z,5.40
2018-04-07T05:58:55.773Z,5.40
2018-04-07T06:01:28.397Z,5.60
2018-04-07T06:04:00.984Z,5.70
2018-04-07T06:06:33.605Z,5.80
2018-04-07T06:09:06.968Z,5.80
2018-04-07T06:11:39.591Z,5.80
2018-04-07T06:14:13.193Z,5.80
2018-04-07T06:16:45.804Z,5.80
2018-04-07T06:19:20.052Z,6.00
2018-04-07T06:21:53.444Z,5.90
2018-04-07T06:24:26.031Z,5.90
2018-04-07T06:26:58.645Z,6.10
2018-04-07T06:29:32.009Z,6.60
2018-04-07T06:32:04.637Z,6.60
2018-04-07T06:34:37.992Z,7.10
2018-04-07T06:37:16.321Z,7.10
2018-04-07T06:39:48.909Z,7.10
2018-04-07T06:42:21.530Z,7.60
2018-04-07T06:44:54.117Z,8.50
2018-04-07T06:47:26.728Z,8.10
2018-04-07T06:49:59.316Z,8.50
2018-04-07T06:52:31.933Z,9.40
2018-04-07T06:55:04.562Z,9.50
2018-04-07T06:57:37.190Z,9.40
2018-04-07T07:00:09.764Z,9.90
2018-04-07T07:02:42.368Z,10.10
2018-04-07T07:05:14.947Z,9.90
2018-04-07T07:07:47.562Z,10.00
2018-04-07T07:10:20.911Z,10.50
2018-04-07T07:12:53.519Z,10.50
2018-04-07T07:15:26.107Z,10.80
2018-04-07T07:17:58.750Z,11.30
2018-04-07T07:20:32.104Z,11.20
2018-04-07T07:23:04.707Z,11.20
2018-04-07T07:25:37.302Z,11.10
2018-04-07T07:28:09.921Z,11.00
2018-04-07T07:30:43.295Z,12.20
2018-04-07T07:33:15.928Z,12.20
2018-04-07T07:35:49.289Z,12.30
2018-04-07T07:38:21.927Z,12.30
2018-04-07T07:40:55.292Z,11.50
2018-04-07T07:43:27.916Z,11.40
2018-04-07T07:46:00.509Z,11.50
2018-04-07T07:48:33.116Z,11.90
2018-04-07T07:51:06.480Z,11.70
2018-04-07T07:53:39.121Z,11.70
2018-04-07T07:56:11.712Z,11.60
2018-04-07T07:58:45.097Z,11.80
2018-04-07T08:01:18.452Z,11.50
2018-04-07T08:03:51.073Z,11.40
2018-04-07T08:06:23.663Z,11.90
2018-04-07T08:08:56.277Z,11.60
2018-04-07T08:11:28.878Z,11.60
2018-04-07T08:14:02.269Z,11.90
2018-04-07T08:16:34.872Z,11.80
2018-04-07T08:19:08.276Z,12.40
2018-04-07T08:21:40.888Z,12.40
2018-04-07T08:24:14.268Z,12.40
2018-04-07T08:26:46.868Z,12.40
2018-04-07T08:29:19.505Z,12.50
2018-04-07T08:31:52.102Z,12.50
2018-04-07T08:34:24.720Z,12.50
2018-04-07T08:36:57.312Z,12.80
2018-04-07T08:39:29.951Z,13.30
2018-04-07T08:42:02.551Z,12.90
2018-04-07T08:44:35.154Z,12.80
2018-04-07T08:47:07.743Z,13.00
2018-04-07T08:49:40.370Z,13.30
2018-04-07T08:52:12.963Z,13.30
2018-04-07T08:54:45.582Z,13.60
2018-04-07T08:57:18.939Z,13.10
2018-04-07T08:59:51.557Z,13.10
2018-04-07T09:02:24.147Z,13.70
2018-04-07T09:04:56.761Z,13.70
2018-04-07T09:07:30.126Z,14.10
2018-04-07T09:10:02.743Z,14.10
2018-04-07T09:12:35.319Z,14.20
2018-04-07T09:15:07.928Z,14.20
2018-04-07T09:17:40.524Z,14.40
2018-04-07T09:20:13.130Z,14.20
2018-04-07T09:22:46.497Z,14.40
2018-04-07T09:25:19.112Z,14.40
2018-04-07T09:27:51.704Z,14.30
2018-04-07T09:30:24.316Z,14.30
2018-04-07T09:32:57.670Z,14.10
2018-04-07T09:35:30.300Z,14.00
2018-04-07T09:38:02.909Z,14.30
2018-04-07T09:40:36.301Z,14.70
2018-04-07T09:43:08.893Z,14.70
2018-04-07T09:45:41.503Z,14.50
2018-04-07T09:48:14.873Z,14.40
2018-04-07T09:50:47.496Z,14.40
2018-04-07T09:53:21.881Z,14.70
2018-04-07T09:55:55.493Z,14.60
2018-04-07T09:58:28.089Z,14.90
2018-04-07T10:01:00.708Z,14.70
2018-04-07T10:03:33.301Z,15.00
2018-04-07T10:06:05.922Z,14.60
2018-04-07T10:08:39.292Z,14.90
2018-04-07T10:11:11.917Z,14.90
2018-04-07T10:13:45.286Z,15.30
2018-04-07T10:16:17.909Z,15.30
2018-04-07T10:18:50.498Z,15.30
2018-04-07T10:21:23.116Z,15.60
2018-04-07T10:23:55.716Z,15.90
2018-04-07T10:26:28.337Z,15.60
2018-04-07T10:29:00.929Z,15.60
2018-04-07T10:31:33.541Z,15.70
2018-04-07T10:34:06.153Z,16.10
2018-04-07T10:36:39.522Z,16.20
2018-04-07T10:39:12.121Z,16.20
2018-04-07T10:41:44.744Z,16.40
2018-04-07T10:44:18.111Z,16.10
2018-04-07T10:46:50.725Z,16.10
2018-04-07T10:49:23.326Z,16.40
2018-04-07T10:51:55.944Z,16.40
2018-04-07T10:54:28.539Z,16.10
2018-04-07T10:57:01.152Z,16.30
2018-04-07T10:59:33.752Z,16.70
2018-04-07T11:02:06.370Z,16.60
2018-04-07T11:04:39.742Z,17.00
2018-04-07T11:07:12.364Z,17.00
2018-04-07T11:09:44.957Z,17.20
2018-04-07T11:12:17.574Z,17.60
2018-04-07T11:14:50.936Z,17.70
2018-04-07T11:17:24.339Z,17.70
2018-04-07T11:19:56.936Z,17.70
2018-04-07T11:22:29.557Z,18.00
2018-04-07T11:25:02.152Z,17.90
2018-04-07T11:27:34.764Z,17.30
2018-04-07T11:30:08.125Z,17.40
2018-04-07T11:32:40.732Z,17.40
2018-04-07T11:35:13.339Z,17.50
2018-04-07T11:37:45.962Z,17.50
2018-04-07T11:40:18.551Z,17.80
2018-04-07T11:42:51.165Z,17.70
2018-04-07T11:45:23.751Z,17.70
2018-04-07T11:47:56.374Z,18.00
2018-04-07T11:50:28.979Z,18.00
2018-04-07T11:53:01.601Z,17.60
2018-04-07T11:55:34.955Z,18.10
2018-04-07T11:58:07.573Z,18.00
2018-04-07T12:00:40.176Z,18.30
2018-04-07T12:03:13.581Z,18.30
2018-04-07T12:05:46.171Z,18.20
2018-04-07T12:08:18.790Z,18.20
2018-04-07T12:10:51.389Z,17.80
2018-04-07T12:13:24.001Z,18.10
2018-04-07T12:15:56.604Z,18.40
2018-04-07T12:18:29.210Z,18.50
2018-04-07T12:21:01.817Z,18.50
2018-04-07T12:23:34.441Z,18.30
2018-04-07T12:26:07.027Z,18.50
2018-04-07T12:28:39.645Z,18.70
2018-04-07T12:31:12.237Z,18.80
2018-04-07T12:33:44.858Z,19.20
2018-04-07T12:36:17.466Z,18.90
2018-04-07T12:38:50.078Z,19.10
2018-04-07T12:41:23.427Z,18.70
2018-04-07T12:43:56.066Z,18.70
2018-04-07T12:46:29.437Z,19.20
2018-04-07T12:49:02.056Z,19.20
2018-04-07T12:51:34.645Z,18.90
2018-04-07T12:54:07.437Z,19.50
2018-04-07T12:56:40.074Z,19.20
2018-04-07T12:59:12.706Z,19.10
2018-04-07T13:01:45.341Z,19.30
2018-04-07T13:04:18.729Z,19.10
2018-04-07T13:06:51.356Z,19.10
2018-04-07T13:09:23.950Z,19.50
2018-04-07T13:11:56.566Z,19.40
2018-04-07T13:14:29.951Z,19.50
2018-04-07T13:17:02.588Z,19.50
2018-04-07T13:19:35.190Z,19.40
2018-04-07T13:22:07.849Z,19.70
2018-04-07T13:24:40.461Z,19.40
2018-04-07T13:27:13.078Z,19.50
2018-04-07T13:29:46.436Z,19.70
2018-04-07T13:32:19.063Z,19.70
2018-04-07T13:34:51.659Z,19.60
2018-04-07T13:37:24.271Z,19.50
2018-04-07T13:39:57.633Z,19.70
2018-04-07T13:42:30.255Z,19.70
2018-04-07T13:45:02.851Z,20.00
2018-04-07T13:47:36.224Z,19.70
2018-04-07T13:50:08.821Z,19.70
2018-04-07T13:52:41.440Z,20.10
2018-04-07T13:55:14.041Z,19.90
2018-04-07T13:57:47.440Z,20.00
2018-04-07T14:00:20.036Z,20.00
2018-04-07T14:02:53.421Z,20.30
2018-04-07T14:05:26.018Z,20.20
2018-04-07T14:07:58.633Z,20.50
2018-04-07T14:10:31.989Z,20.20
2018-04-07T14:13:04.643Z,20.10
2018-04-07T14:15:37.240Z,20.10
2018-04-07T14:18:09.844Z,20.10
2018-04-07T14:20:42.436Z,20.20
2018-04-07T14:23:15.060Z,20.10
2018-04-07T14:25:47.652Z,20.30
2018-04-07T14:28:20.272Z,20.10
2018-04-07T14:30:53.632Z,20.40
2018-04-07T14:33:26.264Z,20.40
2018-04-07T14:35:58.867Z,20.40
2018-04-07T14:38:32.248Z,20.30
2018-04-07T14:41:04.840Z,20.30
2018-04-07T14:43:37.480Z,20.40
2018-04-07T14:46:10.069Z,20.50
2018-04-07T14:48:42.697Z,20.40
2018-04-07T14:51:15.287Z,20.10
2018-04-07T14:53:47.920Z,20.10
2018-04-07T14:56:20.498Z,20.10
2018-04-07T14:58:53.118Z,20.10
2018-04-07T15:01:26.484Z,20.20
2018-04-07T15:03:59.130Z,20.20
2018-04-07T15:06:31.733Z,20.30
2018-04-07T15:09:04.362Z,20.30
2018-04-07T15:11:36.959Z,20.20
2018-04-07T15:14:09.573Z,20.30
2018-04-07T15:16:42.941Z,20.30
2018-04-07T15:19:15.582Z,20.30
2018-04-07T15:21:48.931Z,20.20
2018-04-07T15:24:21.539Z,20.10
2018-04-07T15:26:54.141Z,20.20
2018-04-07T15:29:26.765Z,20.10
2018-04-07T15:32:00.133Z,20.20
2018-04-07T15:34:32.749Z,20.20
2018-04-07T15:37:06.108Z,20.20
2018-04-07T15:39:38.721Z,20.20
2018-04-07T15:42:11.316Z,20.20
2018-04-07T15:44:43.944Z,20.10
2018-04-07T15:47:17.312Z,20.10
2018-04-07T15:49:49.945Z,20.10
2018-04-07T15:52:23.308Z,20.10
2018-04-07T15:54:55.916Z,20.00
2018-04-07T15:57:28.521Z,20.00
2018-04-07T16:00:01.151Z,19.90
2018-04-07T16:02:33.745Z,19.90
2018-04-07T16:05:06.380Z,19.90
2018-04-07T16:07:38.971Z,19.90
2018-04-07T16:10:11.606Z,19.90
2018-04-07T16:12:44.205Z,19.80
2018-04-07T16:15:16.822Z,19.70
2018-04-07T16:17:49.436Z,19.60
2018-04-07T16:20:22.073Z,19.60
2018-04-07T16:22:54.668Z,19.50
2018-04-07T16:25:27.289Z,19.60
2018-04-07T16:27:59.900Z,19.60
2018-04-07T16:30:32.536Z,19.50
2018-04-07T16:33:05.137Z,19.50
2018-04-07T16:35:37.763Z,19.40
2018-04-07T16:38:10.370Z,19.30
2018-04-07T16:40:42.994Z,19.30
2018-04-07T16:43:16.402Z,19.40
2018-04-07T16:45:48.988Z,19.30
2018-04-07T16:48:23.341Z,19.00
2018-04-07T16:50:59.547Z,19.00
2018-04-07T16:53:32.143Z,18.90
2018-04-07T16:56:04.754Z,18.90
2018-04-07T16:58:37.352Z,18.90
2018-04-07T17:01:09.989Z,18.70
2018-04-07T17:03:42.631Z,18.60
2018-04-07T17:06:16.038Z,18.40
2018-04-07T17:08:48.623Z,18.40
2018-04-07T17:11:21.251Z,18.30
2018-04-07T17:13:54.611Z,18.00
2018-04-07T17:16:27.233Z,18.00
2018-04-07T17:19:00.625Z,17.60
2018-04-07T17:21:33.255Z,17.60
2018-04-07T17:24:05.848Z,17.50
2018-04-07T17:26:38.460Z,17.50
2018-04-07T17:29:11.113Z,17.30
2018-04-07T17:31:44.519Z,17.10
2018-04-07T17:34:17.885Z,17.00
2018-04-07T17:36:50.502Z,16.90
2018-04-07T17:39:23.130Z,17.00
2018-04-07T17:41:55.773Z,16.90
2018-04-07T17:44:28.373Z,16.70
2018-04-07T17:47:01.017Z,16.70
2018-04-07T17:49:43.606Z,16.50
2018-04-07T17:52:06.325Z,16.40
2018-04-07T17:54:39.067Z,16.40
2018-04-07T17:57:12.460Z,16.20
2018-04-07T17:59:45.106Z,16.20
2018-04-07T18:02:17.731Z,16.00
2018-04-07T18:04:50.350Z,15.80
2018-04-07T18:07:24.214Z,15.70
2018-04-07T18:09:56.881Z,15.60
2018-04-07T18:12:29.517Z,15.60
2018-04-07T18:15:02.107Z,15.60
2018-04-07T18:17:34.771Z,15.50
2018-04-07T18:20:07.597Z,15.40
2018-04-07T18:22:40.519Z,15.30
2018-04-07T18:25:13.190Z,15.30
2018-04-07T18:27:45.816Z,15.10
2018-04-07T18:30:19.168Z,15.00
2018-04-07T18:32:51.782Z,15.00
2018-04-07T18:35:24.380Z,14.90
2018-04-07T18:37:56.992Z,14.70
2018-04-07T18:40:29.604Z,14.70
2018-04-07T18:43:02.427Z,14.60
2018-04-07T18:45:35.037Z,14.60
2018-04-07T18:48:08.754Z,14.50
2018-04-07T18:50:41.372Z,14.40
2018-04-07T18:53:14.008Z,14.40
2018-04-07T18:55:46.608Z,14.30
2018-04-07T18:58:19.254Z,14.20
2018-04-07T19:00:51.857Z,14.20
2018-04-07T19:03:25.277Z,14.20
2018-04-07T19:05:57.869Z,14.20
2018-04-07T19:08:30.492Z,14.10
2018-04-07T19:11:03.075Z,14.10
2018-04-07T19:13:36.602Z,14.00
2018-04-07T19:16:09.190Z,13.90
2018-04-07T19:18:42.593Z,13.80
2018-04-07T19:21:15.237Z,13.80
2018-04-07T19:23:48.620Z,13.80
2018-04-07T19:26:21.346Z,13.70
2018-04-07T19:28:53.994Z,13.70
2018-04-07T19:31:27.615Z,13.60
2018-04-07T19:34:00.311Z,13.60
2018-04-07T19:36:32.924Z,13.50
2018-04-07T19:39:06.273Z,13.40
2018-04-07T19:41:38.873Z,13.40
2018-04-07T19:44:11.505Z,13.30
2018-04-07T19:46:44.225Z,13.20
2018-04-07T19:49:16.854Z,13.40
2018-04-07T19:51:49.453Z,13.30
2018-04-07T19:54:22.068Z,13.30
2018-04-07T19:56:54.660Z,13.30
2018-04-07T19:59:27.302Z,13.30
2018-04-07T20:01:59.895Z,13.30
2018-04-07T20:04:32.512Z,13.30
2018-04-07T20:07:05.116Z,13.30
2018-04-07T20:09:37.780Z,13.20
2018-04-07T20:12:10.474Z,13.20
2018-04-07T20:14:43.105Z,13.20
2018-04-07T20:17:15.708Z,13.00
2018-04-07T20:19:48.331Z,13.10
2018-04-07T20:22:21.043Z,13.10
2018-04-07T20:24:53.697Z,13.00
2018-04-07T20:27:27.058Z,13.30
2018-04-07T20:29:59.684Z,13.30
2018-04-07T20:32:32.285Z,13.20
2018-04-07T20:35:05.676Z,13.20
2018-04-07T20:37:38.271Z,13.20
2018-04-07T20:40:10.905Z,13.30
2018-04-07T20:42:43.517Z,13.30
2018-04-07T20:45:16.154Z,13.20
2018-04-07T20:47:48.752Z,13.20
2018-04-07T20:50:22.129Z,13.50
2018-04-07T20:52:54.741Z,13.50
2018-04-07T20:55:27.374Z,13.50
2018-04-07T20:57:59.968Z,13.60
2018-04-07T21:00:33.361Z,13.80
2018-04-07T21:03:05.962Z,13.80
2018-04-07T21:05:38.579Z,14.10
2018-04-07T21:08:11.940Z,14.00
2018-04-07T21:10:45.346Z,14.10
2018-04-07T21:13:18.707Z,14.10
2018-04-07T21:15:51.320Z,14.10
2018-04-07T21:18:23.919Z,14.00
2018-04-07T21:20:56.543Z,14.10
2018-04-07T21:23:29.154Z,14.10
2018-04-07T21:26:01.799Z,14.10
2018-04-07T21:28:34.401Z,14.10
2018-04-07T21:31:07.827Z,14.30
2018-04-07T21:33:40.451Z,14.30
2018-04-07T21:36:13.088Z,14.20
2018-04-07T21:38:46.511Z,14.20
2018-04-07T21:41:19.904Z,14.30
2018-04-07T21:43:52.508Z,14.30
2018-04-07T21:46:25.905Z,14.20
2018-04-07T21:48:59.293Z,14.30
2018-04-07T21:51:31.920Z,14.30
2018-04-07T21:54:05.293Z,14.20
2018-04-07T21:56:37.941Z,14.20
2018-04-07T21:59:10.553Z,14.30
2018-04-07T22:01:43.181Z,14.10
2018-04-07T22:04:15.792Z,14.00
2018-04-07T22:06:49.171Z,14.10
2018-04-07T22:09:21.765Z,14.10
2018-04-07T22:11:54.385Z,14.10
2018-04-07T22:14:27.753Z,13.90
2018-04-07T22:17:00.378Z,13.90
2018-04-07T22:19:33.749Z,14.00
2018-04-07T22:22:06.393Z,13.90
2018-04-07T22:24:39.762Z,13.90
2018-04-07T22:27:12.399Z,13.90
2018-04-07T22:29:45.010Z,13.90
2018-04-07T22:32:17.635Z,13.80
2018-04-07T22:34:50.234Z,13.80
2018-04-07T22:37:22.860Z,13.70
2018-04-07T22:39:56.223Z,13.60
2018-04-07T22:42:28.853Z,13.60
2018-04-07T22:45:02.215Z,13.40
2018-04-07T22:47:34.857Z,13.40
2018-04-07T22:50:08.214Z,13.20
2018-04-07T22:52:40.836Z,13.30
2018-04-07T22:55:13.433Z,13.40
2018-04-07T22:57:46.068Z,13.40
2018-04-07T23:00:21.328Z,13.30
2018-04-07T23:02:53.946Z,13.20
2018-04-07T23:05:26.543Z,13.30
2018-04-07T23:07:59.189Z,13.30
2018-04-07T23:10:31.792Z,13.30
2018-04-07T23:13:04.411Z,13.40
2018-04-07T23:15:37.012Z,13.40
2018-04-07T23:18:09.658Z,13.30
2018-04-07T23:20:42.269Z,13.30
2018-04-07T23:23:15.396Z,13.30
2018-04-07T23:25:48.002Z,13.20
2018-04-07T23:28:20.640Z,13.20
2018-04-07T23:30:53.232Z,13.10
2018-04-07T23:33:25.860Z,13.20
2018-04-07T23:35:58.477Z,13.20
2018-04-07T23:38:31.885Z,13.20
2018-04-07T23:41:05.257Z,13.10
2018-04-07T23:43:37.897Z,13.00
2018-04-07T23:46:11.259Z,13.00
2018-04-07T23:48:43.883Z,13.00
2018-04-07T23:51:16.485Z,12.90
2018-04-07T23:53:49.889Z,12.90
2018-04-07T23:56:22.484Z,12.90
2018-04-07T23:58:55.870Z,13.00
